Time;durP1;ratioP1;P1;durP2;ratioP2;P2;SDS_P1;SDS_P2;PMS_P1;PMS_P2;Temp;Humidity;BMP_temperature;BMP_pressure;BME280_temperature;BME280_humidity;BME280_pressure;Samples;Min_cycle;Max_cycle;Signal;HPM_P1;HPM_P2
2023/01/26 00:01:27;;;;;;;;;;;;;;;;;;5085921;28;20339;-83
2023/01/26 00:03:53;;;;;;;;;;;;;;;;;;5062931;28;19908;-83
2023/01/26 00:06:19;;;;;;;;;;;;;;;;;;5088202;28;20357;-83
2023/01/26 00:08:44;;;;;;;;;;;;;;;;;;5078733;28;19904;-83
2023/01/26 00:11:10;;;;;;;;;;;;;;;;;;5054954;28;19912;-83
2023/01/26 00:13:36;;;;;;;;;;;;;;;;;;5070031;28;20246;-83
2023/01/26 00:16:02;;;;;;;;;;;;;;;;;;5069158;28;19904;-83
2023/01/26 00:18:28;;;;;;;;;;;;;;;;;;5085518;28;19914;-83
2023/01/26 00:20:54;;;;;;;;;;;;;;;;;;5056249;28;19908;-83
2023/01/26 00:23:20;;;;;;;;;;;;;;;;;;5088238;28;19908;-83
2023/01/26 00:25:46;;;;;;;;;;;;;;;;;;5067196;28;19980;-83
2023/01/26 00:28:12;;;;;;;;;;;;;;;;;;5059321;28;19915;-83
2023/01/26 00:30:38;;;;;;;;;;;;;;;;;;5051389;28;19913;-83
2023/01/26 00:33:10;;;;;;;;;;;;;;;;;;5078271;28;19908;-83
2023/01/26 00:35:35;;;;;;;;;;;;;;;;;;5059800;28;19917;-83
2023/01/26 00:38:01;;;;;;;;;;;;;;;;;;5043824;28;19932;-83
2023/01/26 00:40:28;;;;;;;;;;;;;;;;;;5045968;28;19933;-83
2023/01/26 00:42:54;;;;;;;;;;;;;;;;;;5044910;28;19913;-83
2023/01/26 00:45:20;;;;;;;;;;;;;;;;;;5044119;28;20373;-83
2023/01/26 00:47:46;;;;;;;;;;;;;;;;;;5058466;28;20324;-83
2023/01/26 00:50:11;;;;;;;;;;;;;;;;;;5063560;28;19905;-83
2023/01/26 00:52:37;;;;;;;;;;;;;;;;;;5064308;28;19905;-83
2023/01/26 00:55:03;;;;;;;;;;;;;;;;;;5059003;28;19912;-83
2023/01/26 00:57:29;;;;;;;;;;;;;;;;;;5055255;28;20042;-83
2023/01/26 00:59:55;;;;;;;;;;;;;;;;;;5051364;28;19911;-83
2023/01/26 01:02:21;;;;;;;;;;;;;;;;;;5063131;28;19912;-83
2023/01/26 01:04:47;;;;;;;;;;;;;;;;;;5049592;28;19963;-83
2023/01/26 01:07:13;;;;;;;;;;;;;;;;;;5054127;28;20346;-83
2023/01/26 01:09:38;;;;;;;;;;;;;;;;;;5058599;28;19912;-83
2023/01/26 01:12:04;;;;;;;;;;;;;;;;;;5042784;28;20315;-83
2023/01/26 01:14:30;;;;;;;;;;;;;;;;;;5062043;28;19908;-83
2023/01/26 01:16:56;;;;;;;;;;;;;;;;;;5051872;28;20255;-83
2023/01/26 01:19:22;;;;;;;;;;;;;;;;;;5060155;28;19927;-83
2023/01/26 01:21:48;;;;;;;;;;;;;;;;;;5062895;28;20043;-83
2023/01/26 01:24:14;;;;;;;;;;;;;;;;;;5063119;28;19986;-83
2023/01/26 01:26:40;;;;;;;;;;;;;;;;;;5062167;28;19905;-83
2023/01/26 01:29:06;;;;;;;;;;;;;;;;;;5048751;28;20309;-83
2023/01/26 01:31:32;;;;;;;;;;;;;;;;;;5061144;28;20359;-83
2023/01/26 01:33:58;;;;;;;;;;;;;;;;;;5053160;28;19905;-83
2023/01/26 01:36:24;;;;;;;;;;;;;;;;;;5058212;28;19920;-83
2023/01/26 01:38:49;;;;;;;;;;;;;;;;;;5071265;28;19905;-83
2023/01/26 01:41:15;;;;;;;;;;;;;;;;;;5080732;28;19904;-83
2023/01/26 01:43:41;;;;;;;;;;;;;;;;;;5082114;28;19904;-83
2023/01/26 01:46:07;;;;;;;;;;;;;;;;;;5081919;28;19911;-83
2023/01/26 01:48:33;;;;;;;;;;;;;;;;;;5079878;28;20377;-83
2023/01/26 01:53:32;;;;;;;;;;;;;;;;;;5071702;28;19908;-83
2023/01/26 01:55:58;;;;;;;;;;;;;;;;;;5061031;28;20361;-83
2023/01/26 01:58:24;;;;;;;;;;;;;;;;;;5079591;28;19904;-83
2023/01/26 02:00:50;;;;;;;;;;;;;;;;;;5079349;28;19911;-83
2023/01/26 02:03:20;;;;;;;;;;;;;;;;;;5078969;28;19911;-83
2023/01/26 02:05:46;;;;;;;;;;;;;;;;;;5080185;28;19910;-83
2023/01/26 02:08:11;;;;;;;;;;;;;;;;;;5058348;28;19936;-83
2023/01/26 02:10:37;;;;;;;;;;;;;;;;;;5042353;28;19913;-83
2023/01/26 02:13:03;;;;;;;;;;;;;;;;;;5078224;28;19904;-83
2023/01/26 02:15:29;;;;;;;;;;;;;;;;;;5062114;28;20269;-83
2023/01/26 02:17:55;;;;;;;;;;;;;;;;;;5057403;28;19976;-83
2023/01/26 02:20:21;;;;;;;;;;;;;;;;;;5053647;28;20417;-83
2023/01/26 02:22:47;;;;;;;;;;;;;;;;;;5073453;28;19911;-83
2023/01/26 02:27:51;;;;;;;;;;;;;;;;;;5079046;28;19951;-83
2023/01/26 02:30:17;;;;;;;;;;;;;;;;;;5061227;28;19904;-83
2023/01/26 02:33:02;;;;;;;;;;;;;;;;;;5061240;28;20003;-83
2023/01/26 02:35:28;;;;;;;;;;;;;;;;;;5077496;28;19924;-83
2023/01/26 02:37:53;;;;;;;;;;;;;;;;;;5060225;28;19904;-83
2023/01/26 02:40:19;;;;;;;;;;;;;;;;;;5048392;28;20285;-83
2023/01/26 02:42:45;;;;;;;;;;;;;;;;;;5078676;28;19904;-83
2023/01/26 02:45:11;;;;;;;;;;;;;;;;;;5078064;28;20276;-83
2023/01/26 02:47:39;;;;;;;;;;;;;;;;;;5060119;28;19911;-83
2023/01/26 02:50:05;;;;;;;;;;;;;;;;;;5060532;28;19995;-83
2023/01/26 02:52:31;;;;;;;;;;;;;;;;;;5060644;28;20342;-83
2023/01/26 02:57:41;;;;;;;;;;;;;;;;;;5080036;28;20319;-83
2023/01/26 03:00:07;;;;;;;;;;;;;;;;;;5066446;28;20007;-83
2023/01/26 03:02:33;;;;;;;;;;;;;;;;;;5065288;28;19905;-83
2023/01/26 03:04:59;;;;;;;;;;;;;;;;;;5059889;28;20350;-83
2023/01/26 03:07:25;;;;;;;;;;;;;;;;;;5080320;28;19915;-83
2023/01/26 03:09:51;;;;;;;;;;;;;;;;;;5088553;28;19904;-84
2023/01/26 03:12:17;;;;;;;;;;;;;;;;;;5088438;28;19912;-84
2023/01/26 03:14:42;;;;;;;;;;;;;;;;;;5087860;28;19904;-84
2023/01/26 03:17:08;;;;;;;;;;;;;;;;;;5082790;28;19905;-84
2023/01/26 03:30:18;;;;;;;;;;;;;;;;;;5090746;28;19919;-83
2023/01/26 03:32:44;;;;;;;;;;;;;;;;;;5087981;28;19900;-83
2023/01/26 03:35:14;;;;;;;;;;;;;;;;;;5060481;28;19924;-84
2023/01/26 03:37:42;;;;;;;;;;;;;;;;;;5050069;28;19905;-83
2023/01/26 03:56:37;;;;;;;;;;;;;;;;;;5060252;28;19967;-84
2023/01/26 03:59:10;;;;;;;;;;;;;;;;;;5048889;28;19928;-84
2023/01/26 04:01:36;;;;;;;;;;;;;;;;;;5060116;28;20277;-84
2023/01/26 04:12:01;;;;;;;;;;;;;;;;;;5053693;28;19959;-84
2023/01/26 04:22:46;;;;;;;;;;;;;;;;;;5059811;28;19981;-84
2023/01/26 04:25:12;;;;;;;;;;;;;;;;;;5065151;28;19905;-84
2023/01/26 04:27:38;;;;;;;;;;;;;;;;;;5066324;28;19905;-84
2023/01/26 04:30:03;;;;;;;;;;;;;;;;;;5060212;28;19912;-84
2023/01/26 04:32:29;;;;;;;;;;;;;;;;;;5047648;28;20016;-84
2023/01/26 04:34:55;;;;;;;;;;;;;;;;;;5068646;28;19966;-84
2023/01/26 04:37:21;;;;;;;;;;;;;;;;;;5085375;28;19962;-83
2023/01/26 04:39:47;;;;;;;;;;;;;;;;;;5066278;28;19905;-84
2023/01/26 04:42:13;;;;;;;;;;;;;;;;;;5086843;28;19904;-84
2023/01/26 04:44:41;;;;;;;;;;;;;;;;;;5086018;28;19919;-84
2023/01/26 04:47:07;;;;;;;;;;;;;;;;;;5067635;28;19984;-84
2023/01/26 04:49:33;;;;;;;;;;;;;;;;;;5084747;28;19912;-84
2023/01/26 04:51:59;;;;;;;;;;;;;;;;;;5066463;28;19912;-84
2023/01/26 04:54:25;;;;;;;;;;;;;;;;;;5067064;28;19962;-84
2023/01/26 04:56:51;;;;;;;;;;;;;;;;;;5083866;28;19967;-84
2023/01/26 04:59:16;;;;;;;;;;;;;;;;;;5066462;28;19931;-84
2023/01/26 05:01:42;;;;;;;;;;;;;;;;;;5067097;28;20269;-84
2023/01/26 05:04:08;;;;;;;;;;;;;;;;;;5084297;28;19904;-84
2023/01/26 05:06:34;;;;;;;;;;;;;;;;;;5083518;28;20323;-84
2023/01/26 05:09:00;;;;;;;;;;;;;;;;;;5082696;28;19904;-84
2023/01/26 05:11:26;;;;;;;;;;;;;;;;;;5065338;28;20003;-84
2023/01/26 05:13:52;;;;;;;;;;;;;;;;;;5047586;28;19905;-84
2023/01/26 05:16:18;;;;;;;;;;;;;;;;;;5045638;28;19912;-84
2023/01/26 05:18:44;;;;;;;;;;;;;;;;;;5045250;28;19905;-84
2023/01/26 05:21:10;;;;;;;;;;;;;;;;;;5054150;28;19905;-84
2023/01/26 05:23:36;;;;;;;;;;;;;;;;;;5070737;28;19905;-84
2023/01/26 05:26:02;;;;;;;;;;;;;;;;;;5074318;28;20354;-84
2023/01/26 05:28:42;;;;;;;;;;;;;;;;;;5058854;28;19905;-84
2023/01/26 05:31:09;;;;;;;;;;;;;;;;;;5053272;28;19916;-84
2023/01/26 05:33:35;;;;;;;;;;;;;;;;;;5060761;28;19915;-84
2023/01/26 05:36:01;;;;;;;;;;;;;;;;;;5051469;28;19917;-84
2023/01/26 05:38:27;;;;;;;;;;;;;;;;;;5044161;28;19913;-84
2023/01/26 05:40:52;;;;;;;;;;;;;;;;;;5054465;28;19995;-84
2023/01/26 05:43:18;;;;;;;;;;;;;;;;;;5057431;28;19912;-84
2023/01/26 05:45:44;;;;;;;;;;;;;;;;;;5056205;28;19909;-84
2023/01/26 05:48:10;;;;;;;;;;;;;;;;;;5054503;28;20400;-84
2023/01/26 05:50:36;;;;;;;;;;;;;;;;;;5051787;28;19905;-84
2023/01/26 05:53:02;;;;;;;;;;;;;;;;;;5049017;28;19905;-84
2023/01/26 05:55:28;;;;;;;;;;;;;;;;;;5039123;28;19905;-84
2023/01/26 05:57:54;;;;;;;;;;;;;;;;;;5042254;28;19912;-84
2023/01/26 06:00:20;;;;;;;;;;;;;;;;;;5060233;28;19905;-84
2023/01/26 06:02:46;;;;;;;;;;;;;;;;;;5058877;28;19905;-84
2023/01/26 06:05:12;;;;;;;;;;;;;;;;;;5059127;28;19955;-84
2023/01/26 06:07:38;;;;;;;;;;;;;;;;;;5041830;28;19909;-84
2023/01/26 06:10:04;;;;;;;;;;;;;;;;;;5038614;28;19913;-84
2023/01/26 06:12:34;;;;;;;;;;;;;;;;;;5043260;28;19920;-84
2023/01/26 06:17:30;;;;;;;;;;;;;;;;;;5054458;28;19912;-84
2023/01/26 06:19:56;;;;;;;;;;;;;;;;;;5037039;28;19909;-84
2023/01/26 06:22:21;;;;;;;;;;;;;;;;;;5055878;28;20396;-84
2023/01/26 06:24:47;;;;;;;;;;;;;;;;;;5048065;28;19905;-84
2023/01/26 06:27:13;;;;;;;;;;;;;;;;;;5059851;28;19951;-84
2023/01/26 06:29:46;;;;;;;;;;;;;;;;;;5056995;28;19905;-83
2023/01/26 06:32:12;;;;;;;;;;;;;;;;;;5061478;28;19969;-83
2023/01/26 06:34:38;;;;;;;;;;;;;;;;;;5055993;28;19908;-84
2023/01/26 06:37:04;;;;;;;;;;;;;;;;;;5058355;28;20374;-83
2023/01/26 06:39:30;;;;;;;;;;;;;;;;;;5056709;28;19908;-84
2023/01/26 06:41:55;;;;;;;;;;;;;;;;;;5046983;28;19916;-84
2023/01/26 06:44:21;;;;;;;;;;;;;;;;;;5049693;28;20313;-84
2023/01/26 06:46:47;;;;;;;;;;;;;;;;;;5051135;28;19947;-83
2023/01/26 06:49:15;;;;;;;;;;;;;;;;;;5053506;28;20282;-83
2023/01/26 06:51:41;;;;;;;;;;;;;;;;;;5036450;28;20420;-83
2023/01/26 06:54:07;;;;;;;;;;;;;;;;;;5036318;28;19905;-83
2023/01/26 06:56:33;;;;;;;;;;;;;;;;;;5036363;28;19904;-83
2023/01/26 06:58:59;;;;;;;;;;;;;;;;;;5060230;28;19950;-84
2023/01/26 07:01:24;;;;;;;;;;;;;;;;;;5076806;28;19947;-83
2023/01/26 07:03:50;;;;;;;;;;;;;;;;;;5063231;28;19905;-83
2023/01/26 07:06:16;;;;;;;;;;;;;;;;;;5056637;28;19905;-84
2023/01/26 07:08:42;;;;;;;;;;;;;;;;;;5078120;28;19908;-84
2023/01/26 07:11:08;;;;;;;;;;;;;;;;;;5055370;28;19913;-84
2023/01/26 07:16:04;;;;;;;;;;;;;;;;;;5083965;28;19954;-84
2023/01/26 07:18:30;;;;;;;;;;;;;;;;;;5084132;28;19904;-84
2023/01/26 07:20:56;;;;;;;;;;;;;;;;;;5067693;28;19909;-84
2023/01/26 07:23:22;;;;;;;;;;;;;;;;;;5090168;28;19905;-84
2023/01/26 07:25:48;;;;;;;;;;;;;;;;;;5062520;28;19905;-84
2023/01/26 07:28:13;;;;;;;;;;;;;;;;;;5068152;28;20331;-84
2023/01/26 07:30:39;;;;;;;;;;;;;;;;;;5065759;28;19904;-84
2023/01/26 07:33:05;;;;;;;;;;;;;;;;;;5070996;28;19980;-84
2023/01/26 07:35:31;;;;;;;;;;;;;;;;;;5081347;28;19973;-84
2023/01/26 07:37:57;;;;;;;;;;;;;;;;;;5055074;28;20381;-84
2023/01/26 07:40:23;;;;;;;;;;;;;;;;;;5028126;28;19949;-84
2023/01/26 07:42:49;;;;;;;;;;;;;;;;;;5021398;28;19905;-84
2023/01/26 07:45:16;;;;;;;;;;;;;;;;;;5048934;28;20423;-84
2023/01/26 07:47:42;;;;;;;;;;;;;;;;;;5029885;28;19905;-84
2023/01/26 07:50:09;;;;;;;;;;;;;;;;;;5057630;28;20008;-84
2023/01/26 07:52:35;;;;;;;;;;;;;;;;;;5052185;28;19913;-84
2023/01/26 07:55:01;;;;;;;;;;;;;;;;;;5037453;28;19944;-84
2023/01/26 07:57:26;;;;;;;;;;;;;;;;;;5037131;28;19912;-84
2023/01/26 07:59:52;;;;;;;;;;;;;;;;;;5036940;28;19905;-84
2023/01/26 08:02:18;;;;;;;;;;;;;;;;;;5036098;28;19912;-84
2023/01/26 08:04:44;;;;;;;;;;;;;;;;;;5035401;28;19954;-84
2023/01/26 08:07:10;;;;;;;;;;;;;;;;;;5037064;28;19905;-84
2023/01/26 08:09:36;;;;;;;;;;;;;;;;;;5035679;28;19905;-84
2023/01/26 08:12:02;;;;;;;;;;;;;;;;;;5036832;28;19936;-84
2023/01/26 08:14:28;;;;;;;;;;;;;;;;;;5035718;28;19912;-84
2023/01/26 08:16:54;;;;;;;;;;;;;;;;;;5025692;28;20000;-84
2023/01/26 08:19:19;;;;;;;;;;;;;;;;;;5037063;28;19936;-84
2023/01/26 08:21:45;;;;;;;;;;;;;;;;;;5054371;28;19915;-84
2023/01/26 08:24:11;;;;;;;;;;;;;;;;;;5056353;28;19959;-84
2023/01/26 08:26:37;;;;;;;;;;;;;;;;;;5053104;28;19945;-84
2023/01/26 08:29:03;;;;;;;;;;;;;;;;;;5035987;28;19917;-84
2023/01/26 08:31:29;;;;;;;;;;;;;;;;;;5028461;28;19947;-84
2023/01/26 08:33:55;;;;;;;;;;;;;;;;;;5027600;28;19905;-84
2023/01/26 08:36:21;;;;;;;;;;;;;;;;;;5051737;28;19916;-84
2023/01/26 08:38:47;;;;;;;;;;;;;;;;;;5051765;28;19916;-84
2023/01/26 08:41:12;;;;;;;;;;;;;;;;;;5056209;28;19912;-84
2023/01/26 08:43:38;;;;;;;;;;;;;;;;;;5043962;28;19905;-84
2023/01/26 08:46:04;;;;;;;;;;;;;;;;;;5057241;28;19911;-84
2023/01/26 08:48:30;;;;;;;;;;;;;;;;;;5056215;28;20049;-84
2023/01/26 08:50:56;;;;;;;;;;;;;;;;;;5051949;28;19912;-84
2023/01/26 08:53:22;;;;;;;;;;;;;;;;;;5055535;28;20279;-84
2023/01/26 08:55:48;;;;;;;;;;;;;;;;;;5071431;28;19909;-84
2023/01/26 08:58:14;;;;;;;;;;;;;;;;;;5057775;28;20538;-84
2023/01/26 09:00:40;;;;;;;;;;;;;;;;;;5059428;28;19905;-84
2023/01/26 09:03:06;;;;;;;;;;;;;;;;;;5077627;28;19930;-84
2023/01/26 09:05:31;;;;;;;;;;;;;;;;;;5055925;28;19970;-84
2023/01/26 09:07:57;;;;;;;;;;;;;;;;;;5068824;28;20254;-84
2023/01/26 09:10:23;;;;;;;;;;;;;;;;;;5057132;28;19963;-84
2023/01/26 09:12:49;;;;;;;;;;;;;;;;;;5058073;28;20365;-84
2023/01/26 09:15:15;;;;;;;;;;;;;;;;;;5074847;28;19904;-84
2023/01/26 09:17:42;;;;;;;;;;;;;;;;;;5077533;28;20320;-84
2023/01/26 09:20:08;;;;;;;;;;;;;;;;;;5076635;28;19950;-84
2023/01/26 09:22:34;;;;;;;;;;;;;;;;;;5076610;28;19987;-84
2023/01/26 09:25:00;;;;;;;;;;;;;;;;;;5073838;28;19959;-84
2023/01/26 09:27:26;;;;;;;;;;;;;;;;;;5051211;28;19918;-84
2023/01/26 09:29:52;;;;;;;;;;;;;;;;;;5076376;28;20482;-84
2023/01/26 09:32:18;;;;;;;;;;;;;;;;;;5059981;28;20277;-84
2023/01/26 09:34:44;;;;;;;;;;;;;;;;;;5060825;28;20358;-84
2023/01/26 09:37:10;;;;;;;;;;;;;;;;;;5056396;28;19939;-84
2023/01/26 09:39:36;;;;;;;;;;;;;;;;;;5057423;28;19915;-83
2023/01/26 09:42:14;;;;;;;;;;;;;;;;;;5077544;28;19912;-83
2023/01/26 09:44:40;;;;;;;;;;;;;;;;;;5078451;28;19904;-84
2023/01/26 09:47:06;;;;;;;;;;;;;;;;;;5077986;28;19909;-83
2023/01/26 09:49:32;;;;;;;;;;;;;;;;;;5078023;28;19914;-83
2023/01/26 09:51:57;;;;;;;;;;;;;;;;;;5077292;28;19958;-81
2023/01/26 09:54:23;;;;;;;;;;;;;;;;;;5069614;28;19912;-81
2023/01/26 09:56:49;;;;;;;;;;;;;;;;;;5082025;28;19905;-81
2023/01/26 09:59:15;;;;;;;;;;;;;;;;;;5079483;28;20005;-81
2023/01/26 10:01:41;;;;;;;;;;;;;;;;;;5060505;28;19911;-81
2023/01/26 10:04:07;;;;;;;;;;;;;;;;;;5078685;28;19904;-81
2023/01/26 10:06:33;;;;;;;;;;;;;;;;;;5076752;28;19935;-81
2023/01/26 10:08:59;;;;;;;;;;;;;;;;;;5078420;28;20280;-81
2023/01/26 10:11:25;;;;;;;;;;;;;;;;;;5076883;28;19955;-81
2023/01/26 10:13:51;;;;;;;;;;;;;;;;;;5065078;28;19908;-82
2023/01/26 10:16:17;;;;;;;;;;;;;;;;;;5064304;28;20376;-82
2023/01/26 10:18:43;;;;;;;;;;;;;;;;;;5064329;28;20425;-82
2023/01/26 10:21:09;;;;;;;;;;;;;;;;;;5067293;28;19905;-82
2023/01/26 10:23:35;;;;;;;;;;;;;;;;;;5054151;28;20269;-82
2023/01/26 10:26:00;;;;;;;;;;;;;;;;;;5066869;28;20001;-82
2023/01/26 10:28:26;;;;;;;;;;;;;;;;;;5051387;28;19908;-82
2023/01/26 10:30:52;;;;;;;;;;;;;;;;;;5069330;28;19912;-82
2023/01/26 10:33:18;;;;;;;;;;;;;;;;;;5059007;28;19911;-82
2023/01/26 10:35:44;;;;;;;;;;;;;;;;;;5046601;28;20113;-81
2023/01/26 10:38:10;;;;;;;;;;;;;;;;;;5054421;28;20293;-82
2023/01/26 10:40:36;;;;;;;;;;;;;;;;;;5047999;28;19908;-82
2023/01/26 10:43:02;;;;;;;;;;;;;;;;;;5048097;28;19905;-82
2023/01/26 10:45:28;;;;;;;;;;;;;;;;;;5039580;28;19941;-82
2023/01/26 10:47:53;;;;;;;;;;;;;;;;;;5051605;28;20277;-82
2023/01/26 10:50:19;;;;;;;;;;;;;;;;;;5052892;28;19912;-82
2023/01/26 10:52:45;;;;;;;;;;;;;;;;;;5047250;28;19920;-82
2023/01/26 10:55:11;;;;;;;;;;;;;;;;;;5054521;28;19905;-82
2023/01/26 10:57:37;;;;;;;;;;;;;;;;;;5050946;28;19908;-82
2023/01/26 11:00:06;;;;;;;;;;;;;;;;;;5047685;28;20055;-82
2023/01/26 11:02:32;;;;;;;;;;;;;;;;;;5049666;28;19931;-80
2023/01/26 11:04:58;;;;;;;;;;;;;;;;;;5052872;28;19941;-80
2023/01/26 11:07:24;;;;;;;;;;;;;;;;;;5055032;28;20138;-80
2023/01/26 11:09:51;;;;;;;;;;;;;;;;;;5066582;28;19912;-80
2023/01/26 11:12:17;;;;;;;;;;;;;;;;;;5069541;28;19940;-80
2023/01/26 11:14:43;;;;;;;;;;;;;;;;;;5060120;28;19911;-80
2023/01/26 11:17:09;;;;;;;;;;;;;;;;;;5059938;28;19943;-80
2023/01/26 11:19:35;;;;;;;;;;;;;;;;;;5063961;28;19904;-80
2023/01/26 11:22:01;;;;;;;;;;;;;;;;;;5068302;28;19916;-80
2023/01/26 11:24:27;;;;;;;;;;;;;;;;;;5065668;28;20277;-80
2023/01/26 11:26:52;;;;;;;;;;;;;;;;;;5053424;28;19921;-81
2023/01/26 11:29:18;;;;;;;;;;;;;;;;;;5049879;28;19904;-81
2023/01/26 11:31:44;;;;;;;;;;;;;;;;;;5062889;28;19920;-81
2023/01/26 11:34:10;;;;;;;;;;;;;;;;;;5059537;28;19928;-81
2023/01/26 11:36:36;;;;;;;;;;;;;;;;;;5066947;28;20479;-81
2023/01/26 11:39:02;;;;;;;;;;;;;;;;;;5072019;28;19916;-81
2023/01/26 11:41:28;;;;;;;;;;;;;;;;;;5060158;28;19982;-81
2023/01/26 11:43:54;;;;;;;;;;;;;;;;;;5076480;28;19905;-81
2023/01/26 11:46:20;;;;;;;;;;;;;;;;;;5083233;28;19904;-81
2023/01/26 11:48:45;;;;;;;;;;;;;;;;;;5084145;28;20332;-81
2023/01/26 11:51:11;;;;;;;;;;;;;;;;;;5076319;28;19913;-81
2023/01/26 11:53:37;;;;;;;;;;;;;;;;;;5083825;28;19966;-81
2023/01/26 11:56:03;;;;;;;;;;;;;;;;;;5079154;28;19911;-81
2023/01/26 11:58:29;;;;;;;;;;;;;;;;;;5079567;28;19904;-81
2023/01/26 12:00:55;;;;;;;;;;;;;;;;;;5079475;28;19905;-81
2023/01/26 12:03:21;;;;;;;;;;;;;;;;;;5070447;28;19905;-81
2023/01/26 12:05:47;;;;;;;;;;;;;;;;;;5085824;28;19960;-80
2023/01/26 12:08:12;;;;;;;;;;;;;;;;;;5081826;28;19911;-80
2023/01/26 12:10:38;;;;;;;;;;;;;;;;;;5059738;28;20310;-80
2023/01/26 12:13:04;;;;;;;;;;;;;;;;;;5079548;28;19911;-80
2023/01/26 12:15:30;;;;;;;;;;;;;;;;;;5080995;28;19912;-80
2023/01/26 12:17:56;;;;;;;;;;;;;;;;;;5074893;28;19938;-80
2023/01/26 12:20:22;;;;;;;;;;;;;;;;;;5087742;28;19917;-80
2023/01/26 12:22:48;;;;;;;;;;;;;;;;;;5084100;28;19904;-80
2023/01/26 12:25:14;;;;;;;;;;;;;;;;;;5076430;28;20014;-80
2023/01/26 12:27:39;;;;;;;;;;;;;;;;;;5066777;28;19912;-80
2023/01/26 12:30:05;;;;;;;;;;;;;;;;;;5081214;28;20267;-80
2023/01/26 12:32:31;;;;;;;;;;;;;;;;;;5058774;28;19913;-80
2023/01/26 12:34:57;;;;;;;;;;;;;;;;;;5076134;28;19905;-81
2023/01/26 12:37:23;;;;;;;;;;;;;;;;;;5082032;28;20346;-81
2023/01/26 12:39:49;;;;;;;;;;;;;;;;;;5073424;28;19905;-81
2023/01/26 12:42:15;;;;;;;;;;;;;;;;;;5076460;28;19958;-81
2023/01/26 12:44:41;;;;;;;;;;;;;;;;;;5085631;28;19904;-81
2023/01/26 12:47:07;;;;;;;;;;;;;;;;;;5076478;28;20065;-81
2023/01/26 12:49:33;;;;;;;;;;;;;;;;;;5085406;28;20372;-81
2023/01/26 12:51:59;;;;;;;;;;;;;;;;;;5083665;28;19912;-80
2023/01/26 12:54:25;;;;;;;;;;;;;;;;;;5080539;28;20353;-81
2023/01/26 12:56:50;;;;;;;;;;;;;;;;;;5084244;28;19904;-80
2023/01/26 12:59:16;;;;;;;;;;;;;;;;;;5076824;28;19909;-80
2023/01/26 13:01:42;;;;;;;;;;;;;;;;;;5067850;28;19912;-80
2023/01/26 13:04:08;;;;;;;;;;;;;;;;;;5084539;28;19904;-80
2023/01/26 13:06:34;;;;;;;;;;;;;;;;;;5071596;28;19905;-80
2023/01/26 13:09:00;;;;;;;;;;;;;;;;;;5075005;28;20301;-80
2023/01/26 13:11:26;;;;;;;;;;;;;;;;;;5066095;28;19913;-80
2023/01/26 13:13:52;;;;;;;;;;;;;;;;;;5064855;28;19904;-80
2023/01/26 13:16:17;;;;;;;;;;;;;;;;;;5077382;28;19905;-80
2023/01/26 13:18:44;;;;;;;;;;;;;;;;;;5082103;28;19968;-80
2023/01/26 13:21:10;;;;;;;;;;;;;;;;;;5076582;28;19912;-80
2023/01/26 13:23:35;;;;;;;;;;;;;;;;;;5074725;28;19911;-80
2023/01/26 13:26:01;;;;;;;;;;;;;;;;;;5063366;28;20368;-80
2023/01/26 13:28:27;;;;;;;;;;;;;;;;;;5040378;28;19905;-80
2023/01/26 13:30:53;;;;;;;;;;;;;;;;;;5084020;28;19920;-81
2023/01/26 13:33:19;;;;;;;;;;;;;;;;;;5085278;28;19905;-81
2023/01/26 13:35:45;;;;;;;;;;;;;;;;;;5085046;28;19912;-81
2023/01/26 13:38:11;;;;;;;;;;;;;;;;;;5092379;28;19916;-81
2023/01/26 13:40:37;;;;;;;;;;;;;;;;;;5089222;28;19955;-81
2023/01/26 13:43:03;;;;;;;;;;;;;;;;;;5077490;28;19905;-80
2023/01/26 13:45:29;;;;;;;;;;;;;;;;;;5089259;28;19904;-81
2023/01/26 13:47:55;;;;;;;;;;;;;;;;;;5070721;28;19905;-81
2023/01/26 13:50:20;;;;;;;;;;;;;;;;;;5069014;28;19904;-81
2023/01/26 13:52:46;;;;;;;;;;;;;;;;;;5087306;28;19917;-81
2023/01/26 13:55:13;;;;;;;;;;;;;;;;;;5088619;28;19947;-81
2023/01/26 13:57:39;;;;;;;;;;;;;;;;;;5088144;28;19904;-81
2023/01/26 14:00:05;;;;;;;;;;;;;;;;;;5087845;28;19912;-81
2023/01/26 14:02:31;;;;;;;;;;;;;;;;;;5087787;28;19991;-81
2023/01/26 14:04:57;;;;;;;;;;;;;;;;;;5075256;28;19976;-81
2023/01/26 14:07:23;;;;;;;;;;;;;;;;;;5073612;28;19912;-81
2023/01/26 14:12:24;;;;;;;;;;;;;;;;;;5080195;28;20007;-80
2023/01/26 14:14:49;;;;;;;;;;;;;;;;;;5072387;28;19916;-80
2023/01/26 14:17:15;;;;;;;;;;;;;;;;;;5086939;28;19971;-80
2023/01/26 14:19:41;;;;;;;;;;;;;;;;;;5087425;28;19927;-81
2023/01/26 14:22:07;;;;;;;;;;;;;;;;;;5086433;28;19915;-81
2023/01/26 14:24:33;;;;;;;;;;;;;;;;;;5081734;28;19908;-80
2023/01/26 14:26:59;;;;;;;;;;;;;;;;;;5078299;28;20003;-80
2023/01/26 14:29:25;;;;;;;;;;;;;;;;;;5080272;28;19993;-80
2023/01/26 14:31:51;;;;;;;;;;;;;;;;;;5061556;28;19909;-80
2023/01/26 14:34:17;;;;;;;;;;;;;;;;;;5068585;28;19912;-80
2023/01/26 14:36:43;;;;;;;;;;;;;;;;;;5059855;28;19923;-80
2023/01/26 14:39:09;;;;;;;;;;;;;;;;;;5063053;28;19958;-80
2023/01/26 14:41:35;;;;;;;;;;;;;;;;;;5084229;28;19904;-80
2023/01/26 14:44:04;;;;;;;;;;;;;;;;;;5070819;28;19905;-80
2023/01/26 14:46:30;;;;;;;;;;;;;;;;;;5059955;28;20007;-80
2023/01/26 14:48:56;;;;;;;;;;;;;;;;;;5069378;28;19975;-81
2023/01/26 14:51:22;;;;;;;;;;;;;;;;;;5073235;28;19909;-80
2023/01/26 14:53:50;;;;;;;;;;;;;;;;;;5065968;28;19930;-80
2023/01/26 14:56:16;;;;;;;;;;;;;;;;;;5071862;28;20377;-80
2023/01/26 14:58:42;;;;;;;;;;;;;;;;;;5079498;28;19905;-80
2023/01/26 15:01:08;;;;;;;;;;;;;;;;;;5074462;28;19962;-80
2023/01/26 15:03:35;;;;;;;;;;;;;;;;;;5080679;28;19915;-81
2023/01/26 15:06:01;;;;;;;;;;;;;;;;;;5083809;28;19904;-80
2023/01/26 15:08:26;;;;;;;;;;;;;;;;;;5083775;28;19909;-81
2023/01/26 15:10:52;;;;;;;;;;;;;;;;;;5078247;28;19950;-80
2023/01/26 15:13:18;;;;;;;;;;;;;;;;;;5080663;28;19908;-81
2023/01/26 15:15:47;;;;;;;;;;;;;;;;;;5080160;28;19912;-81
2023/01/26 15:18:13;;;;;;;;;;;;;;;;;;5085863;28;19908;-81
2023/01/26 15:20:39;;;;;;;;;;;;;;;;;;5087757;28;19951;-81
2023/01/26 15:23:05;;;;;;;;;;;;;;;;;;5088176;28;19904;-81
2023/01/26 15:25:31;;;;;;;;;;;;;;;;;;5086927;28;19950;-80
2023/01/26 15:27:57;;;;;;;;;;;;;;;;;;5078309;28;20282;-81
2023/01/26 15:30:23;;;;;;;;;;;;;;;;;;5080307;28;19904;-81
2023/01/26 15:32:49;;;;;;;;;;;;;;;;;;5090936;28;19908;-81
2023/01/26 15:35:16;;;;;;;;;;;;;;;;;;5091952;28;19909;-81
2023/01/26 15:37:45;;;;;;;;;;;;;;;;;;5090771;28;19912;-80
2023/01/26 15:40:11;;;;;;;;;;;;;;;;;;5080042;28;20334;-80
2023/01/26 15:42:37;;;;;;;;;;;;;;;;;;5076864;28;20366;-80
2023/01/26 15:45:03;;;;;;;;;;;;;;;;;;5084393;28;19940;-80
2023/01/26 15:47:29;;;;;;;;;;;;;;;;;;5074906;28;19904;-80
2023/01/26 15:49:56;;;;;;;;;;;;;;;;;;5086096;28;19980;-80
2023/01/26 15:52:24;;;;;;;;;;;;;;;;;;5086690;28;19930;-80
2023/01/26 15:54:50;;;;;;;;;;;;;;;;;;5081505;28;19979;-81
2023/01/26 15:57:16;;;;;;;;;;;;;;;;;;5088724;28;19963;-81
2023/01/26 15:59:42;;;;;;;;;;;;;;;;;;5052072;28;19911;-81
2023/01/26 16:02:08;;;;;;;;;;;;;;;;;;5078448;28;19905;-80
2023/01/26 16:04:34;;;;;;;;;;;;;;;;;;5079387;28;19904;-80
2023/01/26 16:07:00;;;;;;;;;;;;;;;;;;5082142;28;19953;-81
2023/01/26 16:09:25;;;;;;;;;;;;;;;;;;5078231;28;19905;-81
2023/01/26 16:11:53;;;;;;;;;;;;;;;;;;5082708;28;19908;-81
2023/01/26 16:14:19;;;;;;;;;;;;;;;;;;5068801;28;19909;-81
2023/01/26 16:16:45;;;;;;;;;;;;;;;;;;5077453;28;19926;-81
2023/01/26 16:19:13;;;;;;;;;;;;;;;;;;5088391;28;19908;-81
2023/01/26 16:21:39;;;;;;;;;;;;;;;;;;5084912;28;19905;-81
2023/01/26 16:24:05;;;;;;;;;;;;;;;;;;5079952;28;20404;-81
2023/01/26 16:26:31;;;;;;;;;;;;;;;;;;5079835;28;19912;-81
2023/01/26 16:28:57;;;;;;;;;;;;;;;;;;5081206;28;19912;-81
2023/01/26 16:31:23;;;;;;;;;;;;;;;;;;5082825;28;19908;-81
2023/01/26 16:33:49;;;;;;;;;;;;;;;;;;5083337;28;19904;-81
2023/01/26 16:36:15;;;;;;;;;;;;;;;;;;5073343;28;19942;-81
2023/01/26 16:38:40;;;;;;;;;;;;;;;;;;5087444;28;19904;-81
2023/01/26 16:41:07;;;;;;;;;;;;;;;;;;5084290;28;20285;-81
2023/01/26 16:43:33;;;;;;;;;;;;;;;;;;5077179;28;19915;-81
2023/01/26 16:45:58;;;;;;;;;;;;;;;;;;5078893;28;19909;-81
2023/01/26 16:48:24;;;;;;;;;;;;;;;;;;5074485;28;19931;-81
2023/01/26 16:50:51;;;;;;;;;;;;;;;;;;5076563;28;20339;-81
2023/01/26 16:53:17;;;;;;;;;;;;;;;;;;5087802;28;19912;-81
2023/01/26 16:55:43;;;;;;;;;;;;;;;;;;5087611;28;20410;-81
2023/01/26 16:58:09;;;;;;;;;;;;;;;;;;5087928;28;19971;-81
2023/01/26 17:00:36;;;;;;;;;;;;;;;;;;5087092;28;19911;-81
2023/01/26 17:03:07;;;;;;;;;;;;;;;;;;5069389;28;19904;-81
2023/01/26 17:05:33;;;;;;;;;;;;;;;;;;5087700;28;19995;-81
2023/01/26 17:07:59;;;;;;;;;;;;;;;;;;5087599;28;19905;-81
2023/01/26 17:10:25;;;;;;;;;;;;;;;;;;5088346;28;19999;-81
2023/01/26 17:12:51;;;;;;;;;;;;;;;;;;5075957;28;19960;-81
2023/01/26 17:15:17;;;;;;;;;;;;;;;;;;5075924;28;19912;-81
2023/01/26 17:17:44;;;;;;;;;;;;;;;;;;5074792;28;19939;-81
2023/01/26 17:20:11;;;;;;;;;;;;;;;;;;5073105;28;19904;-81
2023/01/26 17:22:37;;;;;;;;;;;;;;;;;;5072367;28;20346;-81
2023/01/26 17:25:03;;;;;;;;;;;;;;;;;;5072326;28;19913;-81
2023/01/26 17:27:28;;;;;;;;;;;;;;;;;;5054895;28;19905;-81
2023/01/26 17:29:56;;;;;;;;;;;;;;;;;;5072468;28;19940;-81
2023/01/26 17:32:24;;;;;;;;;;;;;;;;;;5067300;28;19963;-81
2023/01/26 17:34:50;;;;;;;;;;;;;;;;;;5067041;28;19909;-81
2023/01/26 17:37:15;;;;;;;;;;;;;;;;;;5066832;28;19913;-81